Time;durP1;ratioP1;P1;durP2;ratioP2;P2;SDS_P1;SDS_P2;PMS_P1;PMS_P2;Temp;Humidity;BMP_temperature;BMP_pressure;BME280_temperature;BME280_humidity;BME280_pressure;Samples;Min_cycle;Max_cycle;Signal;HPM_P1;HPM_P2
2023/07/07 00:00:14;;;;;;;6.15;5.05;;;;;;;10.96;100.00;101393.97;4895482;29;20040;-86
2023/07/07 00:02:41;;;;;;;5.00;4.50;;;;;;;10.96;100.00;101388.69;4895438;29;20556;-84
2023/07/07 00:05:08;;;;;;;5.43;4.50;;;;;;;10.95;100.00;101392.22;4868665;29;20084;-85
2023/07/07 00:07:34;;;;;;;7.63;4.78;;;;;;;10.90;100.00;101401.97;4894781;29;20492;-82
2023/07/07 00:10:03;;;;;;;5.18;4.68;;;;;;;10.89;100.00;101405.50;4877936;29;20509;-85
2023/07/07 00:12:29;;;;;;;5.10;4.40;;;;;;;10.90;100.00;101401.97;4881150;29;20049;-85
2023/07/07 00:14:56;;;;;;;6.05;4.68;;;;;;;10.87;100.00;101400.22;4867200;29;20050;-84
2023/07/07 00:17:24;;;;;;;5.30;4.80;;;;;;;10.91;100.00;101394.00;4896196;29;20550;-83
2023/07/07 00:19:51;;;;;;;6.35;4.97;;;;;;;10.93;100.00;101401.91;4894268;29;20033;-83
2023/07/07 00:22:18;;;;;;;6.72;4.90;;;;;;;10.81;100.00;101391.47;4882872;29;20426;-82
2023/07/07 00:24:45;;;;;;;5.78;4.38;;;;;;;10.71;100.00;101388.94;4876048;29;20040;-82
2023/07/07 00:27:11;;;;;;;4.97;4.47;;;;;;;10.56;100.00;101399.63;4875465;29;20045;-84
2023/07/07 00:29:38;;;;;;;5.75;4.45;;;;;;;10.46;100.00;101405.88;4866352;29;20045;-83
2023/07/07 00:32:05;;;;;;;5.88;4.63;;;;;;;10.41;100.00;101402.38;4876889;29;20063;-83
2023/07/07 00:34:31;;;;;;;4.93;4.43;;;;;;;10.47;100.00;101404.13;4890910;29;20048;-84
2023/07/07 00:36:58;;;;;;;5.10;4.43;;;;;;;10.64;100.00;101410.13;4869435;29;20055;-82
2023/07/07 00:39:25;;;;;;;7.18;4.78;;;;;;;10.63;100.00;101403.09;4880839;29;20142;-82
2023/07/07 00:41:51;;;;;;;5.50;4.60;;;;;;;10.57;100.00;101408.44;4892051;29;20051;-84
2023/07/07 00:44:18;;;;;;;4.97;4.38;;;;;;;10.52;100.00;101412.91;4892308;29;20333;-82
2023/07/07 00:46:45;;;;;;;5.05;4.55;;;;;;;10.37;100.00;101419.16;4903888;29;20040;-84
2023/07/07 00:49:17;;;;;;;6.55;4.47;;;;;;;10.29;100.00;101416.56;4894559;29;20074;-83
2023/07/07 00:51:50;;;;;;;5.55;5.00;;;;;;;10.32;100.00;101413.91;4894928;29;20040;-83
2023/07/07 00:54:26;;;;;;;7.22;4.72;;;;;;;10.34;100.00;101411.25;4865711;29;20052;-82
2023/07/07 00:56:54;;;;;;;8.93;5.18;;;;;;;10.30;100.00;101414.81;4879118;29;20041;-81
2023/07/07 00:59:29;;;;;;;5.65;4.72;;;;;;;10.29;100.00;101407.78;4881748;29;20040;-83
2023/07/07 01:01:59;;;;;;;6.55;4.57;;;;;;;10.26;100.00;101421.91;4890144;29;20045;-84
2023/07/07 01:04:28;;;;;;;5.20;4.70;;;;;;;10.18;100.00;101422.81;4889743;29;20120;-84
2023/07/07 01:07:28;;;;;;;5.38;4.32;;;;;;;10.25;100.00;101422.75;4881026;29;20473;-84
2023/07/07 01:09:54;;;;;;;5.10;4.60;;;;;;;10.19;100.00;101421.91;4886021;29;20049;-84
2023/07/07 01:12:21;;;;;;;5.15;4.50;;;;;;;10.16;100.00;101422.78;4899770;29;20071;-82
2023/07/07 01:14:49;;;;;;;5.13;4.53;;;;;;;10.12;100.00;101435.16;4886840;29;20044;-85
2023/07/07 01:17:38;;;;;;;5.75;4.72;;;;;;;10.11;100.00;101430.75;4897103;29;20045;-84
2023/07/07 01:20:34;;;;;;;5.63;4.30;;;;;;;10.08;100.00;101437.78;4881314;29;20051;-83
2023/07/07 01:23:27;;;;;;;4.40;4.00;;;;;;;10.05;100.00;101429.91;4890218;29;20145;-84
2023/07/07 01:26:19;;;;;;;5.80;4.80;;;;;;;10.01;100.00;101428.19;4896039;29;20043;-85
2023/07/07 01:29:14;;;;;;;5.32;4.82;;;;;;;9.99;100.00;101430.81;4895150;29;20105;-82
2023/07/07 01:31:45;;;;;;;5.13;4.10;;;;;;;10.00;100.00;101432.56;4887693;29;20299;-84
2023/07/07 01:34:14;;;;;;;5.65;4.35;;;;;;;9.97;100.00;101426.44;4898406;29;20079;-83
2023/07/07 01:36:41;;;;;;;5.00;4.47;;;;;;;9.92;100.00;101428.22;4899286;29;20055;-83
2023/07/07 01:39:10;;;;;;;6.03;4.07;;;;;;;9.87;100.00;101426.50;4877704;29;20049;-82
2023/07/07 01:41:52;;;;;;;5.90;4.82;;;;;;;9.82;100.00;101427.38;4889577;29;20551;-83
2023/07/07 01:44:31;;;;;;;5.95;4.93;;;;;;;9.74;100.00;101418.63;4898256;29;20047;-84
2023/07/07 01:47:19;;;;;;;4.45;4.03;;;;;;;9.69;100.00;101420.44;4908399;29;20069;-82
2023/07/07 01:49:55;;;;;;;5.82;4.47;;;;;;;9.69;100.00;101423.06;4884213;29;20128;-82
2023/07/07 01:52:26;;;;;;;5.07;4.45;;;;;;;9.68;100.00;101421.31;4882065;29;20095;-82
2023/07/07 01:54:58;;;;;;;5.20;4.70;;;;;;;9.64;100.00;101422.19;4880141;29;20560;-85
2023/07/07 01:57:25;;;;;;;6.05;4.85;;;;;;;9.62;100.00;101429.25;4870336;29;20473;-83
2023/07/07 01:59:53;;;;;;;5.20;4.18;;;;;;;9.58;100.00;101421.38;4859628;29;20539;-82
2023/07/07 02:02:19;;;;;;;6.70;4.57;;;;;;;9.57;100.00;101421.34;4873565;29;20041;-83
2023/07/07 02:04:46;;;;;;;5.15;4.65;;;;;;;9.53;100.00;101425.78;4866501;29;20051;-83
2023/07/07 02:07:13;;;;;;;4.63;4.20;;;;;;;9.56;100.00;101425.75;4883509;29;20378;-83
2023/07/07 02:09:40;;;;;;;4.72;4.28;;;;;;;9.62;100.00;101434.53;4891381;29;20043;-83
2023/07/07 02:12:07;;;;;;;5.93;4.82;;;;;;;9.55;100.00;101424.00;4865689;29;20048;-84
2023/07/07 02:14:33;;;;;;;8.02;5.18;;;;;;;9.44;100.00;101436.34;4865459;29;20059;-83
2023/07/07 02:17:00;;;;;;;5.45;4.85;;;;;;;9.33;100.00;101432.84;4886538;29;20443;-82
2023/07/07 02:19:27;;;;;;;5.82;4.72;;;;;;;9.25;100.00;101435.53;4863015;29;20527;-84
2023/07/07 02:21:54;;;;;;;6.07;4.57;;;;;;;9.31;100.00;101439.91;4909664;29;20268;-85
2023/07/07 02:24:20;;;;;;;6.35;4.90;;;;;;;9.38;100.00;101439.00;4893397;29;20135;-83
2023/07/07 02:26:49;;;;;;;5.63;4.15;;;;;;;9.40;100.00;101439.00;4896078;29;20040;-83
2023/07/07 02:29:17;;;;;;;4.90;4.32;;;;;;;9.35;100.00;101444.31;4881568;29;20483;-83
2023/07/07 02:31:43;;;;;;;4.90;4.40;;;;;;;9.29;100.00;101444.31;4893919;29;20140;-85
2023/07/07 02:34:10;;;;;;;6.03;4.97;;;;;;;9.31;100.00;101450.44;4880034;29;20057;-83
2023/07/07 02:36:37;;;;;;;6.03;5.05;;;;;;;9.30;100.00;101449.56;4853223;29;20051;-83
2023/07/07 02:39:04;;;;;;;5.32;4.57;;;;;;;9.30;100.00;101452.22;4870812;29;20051;-84
2023/07/07 02:41:30;;;;;;;6.47;4.70;;;;;;;9.30;100.00;101449.56;4898552;29;20131;-82
2023/07/07 02:43:57;;;;;;;5.82;4.32;;;;;;;9.27;100.00;101449.59;4885746;29;20057;-84
2023/07/07 02:46:24;;;;;;;5.65;4.75;;;;;;;9.34;100.00;101444.31;4894997;29;20104;-82
2023/07/07 02:48:51;;;;;;;6.05;4.10;;;;;;;9.30;100.00;101448.69;4893938;29;20534;-82
2023/07/07 02:51:18;;;;;;;5.38;4.50;;;;;;;9.16;100.00;101453.13;4873453;29;20389;-83
2023/07/07 02:53:44;;;;;;;6.10;4.80;;;;;;;9.10;100.00;101445.25;4893334;29;20044;-83
2023/07/07 02:56:11;;;;;;;6.75;4.80;;;;;;;9.11;100.00;101441.72;4901375;29;20469;-82
2023/07/07 02:58:38;;;;;;;4.90;4.40;;;;;;;9.13;100.00;101453.13;4880876;29;20524;-85
2023/07/07 03:01:12;;;;;;;5.50;4.60;;;;;;;9.19;100.00;101448.72;4862079;29;20245;-84
2023/07/07 03:03:44;;;;;;;6.88;5.15;;;;;;;9.17;100.00;101449.63;4895261;29;20048;-84
2023/07/07 03:06:15;;;;;;;6.77;4.90;;;;;;;9.14;100.00;101449.63;4873979;29;20045;-83
2023/07/07 03:08:43;;;;;;;6.03;4.53;;;;;;;9.14;100.00;101447.84;4895610;29;20512;-84
2023/07/07 03:11:12;;;;;;;5.72;4.80;;;;;;;9.22;100.00;101450.47;4897577;29;20102;-84
2023/07/07 03:13:39;;;;;;;5.10;4.60;;;;;;;9.29;100.00;101457.50;4893451;29;20401;-82
2023/07/07 03:16:12;;;;;;;6.63;4.50;;;;;;;9.30;100.00;101465.41;4866687;29;20049;-84
2023/07/07 03:18:39;;;;;;;6.53;4.80;;;;;;;9.19;100.00;101459.28;4890157;29;20060;-83
2023/07/07 03:21:07;;;;;;;5.20;4.70;;;;;;;9.15;100.00;101464.53;4891498;29;20075;-86
2023/07/07 03:23:35;;;;;;;5.03;4.53;;;;;;;9.12;100.00;101469.84;4901748;29;20096;-86
2023/07/07 03:26:06;;;;;;;4.80;4.30;;;;;;;9.12;100.00;101469.84;4878198;29;20051;-85
2023/07/07 03:28:33;;;;;;;4.90;4.23;;;;;;;9.15;100.00;101465.41;4881083;29;20068;-82
2023/07/07 03:31:11;;;;;;;5.22;4.72;;;;;;;9.16;100.00;101467.16;4892699;29;20069;-84
2023/07/07 03:33:40;;;;;;;7.28;5.40;;;;;;;9.15;100.00;101470.69;4890118;29;20047;-86
2023/07/07 03:36:10;;;;;;;6.22;4.70;;;;;;;9.17;100.00;101476.00;4867158;29;20070;-86
2023/07/07 03:38:37;;;;;;;6.50;5.03;;;;;;;9.17;100.00;101474.22;4882674;29;20036;-85
2023/07/07 03:41:05;;;;;;;5.45;4.90;;;;;;;9.17;100.00;101484.78;4883783;29;20386;-86
2023/07/07 03:43:33;;;;;;;6.65;4.60;;;;;;;9.16;100.00;101482.13;4865540;29;20044;-86
2023/07/07 03:46:03;;;;;;;6.53;4.68;;;;;;;9.15;100.00;101490.91;4897080;29;20109;-83
2023/07/07 03:48:30;;;;;;;4.85;4.35;;;;;;;9.12;100.00;101494.44;4894157;29;20477;-85
2023/07/07 03:50:58;;;;;;;5.10;4.47;;;;;;;9.14;100.00;101486.53;4870500;29;20045;-85
2023/07/07 03:53:27;;;;;;;5.10;4.60;;;;;;;9.15;100.00;101496.19;4877842;29;20425;-83
2023/07/07 03:55:54;;;;;;;6.33;5.43;;;;;;;9.20;100.00;101491.78;4878961;29;20047;-84
2023/07/07 03:58:23;;;;;;;5.47;4.77;;;;;;;9.23;100.00;101491.78;4886407;29;20112;-86
2023/07/07 04:00:50;;;;;;;7.25;5.32;;;;;;;9.25;100.00;101492.69;4875206;29;20048;-83
2023/07/07 04:03:17;;;;;;;6.97;5.32;;;;;;;9.23;100.00;101494.41;4868858;29;20060;-85
2023/07/07 04:05:46;;;;;;;5.78;4.95;;;;;;;9.27;100.00;101497.06;4878148;29;20056;-85
2023/07/07 04:08:15;;;;;;;5.18;4.68;;;;;;;9.33;100.00;101498.78;4876672;29;20105;-87
2023/07/07 04:10:42;;;;;;;6.03;5.13;;;;;;;9.38;100.00;101497.03;4889162;29;20037;-84
2023/07/07 04:13:09;;;;;;;6.30;4.78;;;;;;;9.43;100.00;101495.28;4875523;29;20144;-86
2023/07/07 04:15:39;;;;;;;5.30;4.55;;;;;;;9.41;100.00;101490.84;4875423;29;20497;-83
2023/07/07 04:18:05;;;;;;;4.90;4.30;;;;;;;9.48;100.00;101496.13;4891715;29;20056;-86
2023/07/07 04:20:33;;;;;;;7.13;5.13;;;;;;;9.53;100.00;101502.28;4865908;29;20056;-82
2023/07/07 04:22:59;;;;;;;5.38;4.88;;;;;;;9.53;100.00;101504.91;4881646;29;20460;-86
2023/07/07 04:25:26;;;;;;;5.93;4.40;;;;;;;9.48;100.00;101504.03;4883177;29;20052;-82
2023/07/07 04:27:53;;;;;;;6.68;5.05;;;;;;;9.53;100.00;101510.19;4889632;29;20072;-85
2023/07/07 04:30:19;;;;;;;5.10;4.60;;;;;;;9.57;100.00;101511.03;4899619;29;20131;-85
2023/07/07 04:32:46;;;;;;;6.30;4.80;;;;;;;9.60;100.00;101508.41;4888680;29;20572;-82
2023/07/07 04:35:13;;;;;;;5.85;4.63;;;;;;;9.62;100.00;101504.00;4877155;29;20139;-84
2023/07/07 04:37:40;;;;;;;7.05;5.35;;;;;;;9.65;100.00;101508.38;4897655;29;20041;-82
2023/07/07 04:40:08;;;;;;;5.38;4.63;;;;;;;9.70;100.00;101511.91;4897473;29;20456;-85
2023/07/07 04:42:35;;;;;;;5.30;4.80;;;;;;;9.71;100.00;101509.25;4882225;29;20041;-86
2023/07/07 04:45:02;;;;;;;6.50;4.88;;;;;;;9.76;100.00;101501.31;4898319;29;20044;-87
2023/07/07 04:47:29;;;;;;;5.55;4.60;;;;;;;9.83;100.00;101511.81;4882721;29;20108;-84
2023/07/07 04:49:56;;;;;;;5.72;4.78;;;;;;;9.88;100.00;101506.53;4882807;29;20043;-87
2023/07/07 04:52:23;;;;;;;5.32;4.75;;;;;;;9.87;100.00;101510.94;4898123;29;20092;-84
2023/07/07 04:54:50;;;;;;;5.35;4.80;;;;;;;9.88;100.00;101504.78;4882958;29;20044;-84
2023/07/07 04:57:17;;;;;;;6.13;4.95;;;;;;;9.93;100.00;101511.81;4897828;29;20487;-83
2023/07/07 04:59:43;;;;;;;7.88;5.20;;;;;;;10.00;100.00;101510.88;4913360;29;20063;-84
2023/07/07 05:02:10;;;;;;;5.90;5.35;;;;;;;10.19;100.00;101517.84;4897760;29;20045;-83
2023/07/07 05:04:37;;;;;;;5.55;5.03;;;;;;;10.42;100.00;101518.63;4881684;29;20072;-82
2023/07/07 05:07:04;;;;;;;5.20;4.70;;;;;;;10.67;100.00;101519.31;4881491;29;20500;-84
2023/07/07 05:09:31;;;;;;;6.40;4.97;;;;;;;10.82;100.00;101520.09;4902461;29;20404;-82
2023/07/07 05:11:58;;;;;;;5.85;4.95;;;;;;;10.80;100.00;101522.78;4909022;29;20078;-84
2023/07/07 05:14:27;;;;;;;6.32;4.82;;;;;;;10.81;100.00;101518.34;4879832;29;20041;-83
2023/07/07 05:16:54;;;;;;;5.60;5.00;;;;;;;10.88;100.00;101528.00;4863796;29;20097;-85
2023/07/07 05:19:21;;;;;;;4.88;4.38;;;;;;;11.08;100.00;101526.06;4862996;29;20045;-84
2023/07/07 05:21:47;;;;;;;4.75;4.25;;;;;;;11.21;100.00;101530.34;4878226;29;20055;-82
2023/07/07 05:24:14;;;;;;;4.60;4.20;;;;;;;11.23;100.00;101525.91;4862622;29;20113;-85
2023/07/07 05:26:41;;;;;;;5.78;4.80;;;;;;;11.22;100.00;101531.22;4880733;29;20049;-82
2023/07/07 05:29:11;;;;;;;6.22;4.75;;;;;;;11.21;100.00;101524.19;4900195;29;20045;-84
2023/07/07 05:31:38;;;;;;;4.90;4.40;;;;;;;11.29;100.00;101527.63;4871400;29;20500;-82
2023/07/07 05:34:04;;;;;;;5.00;4.43;;;;;;;11.37;100.00;101530.22;4877785;29;20428;-83
2023/07/07 05:36:31;;;;;;;5.35;4.45;;;;;;;11.47;100.00;101527.44;4901166;29;20112;-84
2023/07/07 05:38:58;;;;;;;5.38;4.88;;;;;;;11.60;100.00;101527.31;4871659;29;20139;-82
2023/07/07 05:41:25;;;;;;;4.65;4.18;;;;;;;11.84;100.00;101535.00;4895984;29;20036;-84
2023/07/07 05:43:51;;;;;;;5.28;4.10;;;;;;;13.35;100.00;101526.59;4856490;29;20440;-81
2023/07/07 05:46:18;;;;;;;4.13;3.60;;;;;;;15.78;100.00;101527.25;4891695;29;20044;-83
2023/07/07 05:48:46;;;;;;;3.90;3.10;;;;;;;18.05;84.61;101521.56;4891721;29;20496;-83
2023/07/07 05:51:18;;;;;;;4.63;3.38;;;;;;;20.32;67.79;101521.78;4886931;29;20155;-85
2023/07/07 05:53:45;;;;;;;3.60;3.00;;;;;;;22.23;60.02;101527.28;4901201;29;20132;-84
2023/07/07 05:56:23;;;;;;;2.88;2.67;;;;;;;23.67;51.91;101527.88;4889004;29;20571;-83
2023/07/07 05:58:52;;;;;;;6.35;3.40;;;;;;;24.66;47.64;101532.41;4881775;29;20033;-84
2023/07/07 06:01:18;;;;;;;3.53;3.08;;;;;;;25.69;44.23;101537.13;4883780;29;20044;-83
2023/07/07 06:03:45;;;;;;;3.50;2.88;;;;;;;26.39;43.32;101532.13;4876685;29;20493;-83
2023/07/07 06:06:12;;;;;;;4.70;3.40;;;;;;;25.79;44.38;101536.41;4864401;29;20079;-82
2023/07/07 06:08:40;;;;;;;3.30;3.00;;;;;;;25.60;43.10;101533.22;4901358;29;20128;-84
2023/07/07 06:11:07;;;;;;;3.53;3.08;;;;;;;25.39;45.18;101542.81;4881143;29;20135;-83
2023/07/07 06:13:33;;;;;;;3.38;3.08;;;;;;;25.05;45.53;101542.41;4876770;29;20044;-84
2023/07/07 06:16:00;;;;;;;3.55;3.25;;;;;;;24.16;48.00;101550.00;4883815;29;20095;-82
2023/07/07 06:18:27;;;;;;;3.55;3.25;;;;;;;23.48;50.82;101552.41;4864724;29;20056;-84
2023/07/07 06:20:57;;;;;;;3.15;2.90;;;;;;;22.90;54.80;101547.75;4864201;29;20587;-82
2023/07/07 06:23:27;;;;;;;3.70;2.97;;;;;;;22.46;57.45;101553.81;4879430;29;20080;-82
2023/07/07 06:25:54;;;;;;;3.85;3.15;;;;;;;22.33;58.97;101556.31;4898118;29;20040;-82
2023/07/07 06:28:21;;;;;;;4.10;3.25;;;;;;;22.01;60.19;101554.47;4886851;29;20075;-82
2023/07/07 06:30:49;;;;;;;5.50;2.92;;;;;;;22.03;60.24;101549.88;4869520;29;20064;-81
2023/07/07 06:33:16;;;;;;;3.40;2.70;;;;;;;22.24;61.59;101547.88;4872034;29;20452;-81
2023/07/07 06:35:47;;;;;;;3.83;2.90;;;;;;;22.03;58.66;101549.88;4855642;29;20179;-84
2023/07/07 06:38:14;;;;;;;3.97;2.85;;;;;;;22.29;59.95;101554.75;4869739;29;20056;-81
2023/07/07 06:40:41;;;;;;;4.03;2.85;;;;;;;22.22;60.01;101552.47;4879064;29;20044;-85
2023/07/07 06:43:08;;;;;;;4.65;2.85;;;;;;;22.31;62.98;101554.66;4875028;29;20406;-81
2023/07/07 06:45:36;;;;;;;3.75;2.60;;;;;;;22.46;57.32;101549.28;4869678;29;20064;-85
2023/07/07 06:48:04;;;;;;;4.45;2.63;;;;;;;22.61;56.77;101552.06;4866698;29;20068;-85
2023/07/07 06:50:37;;;;;;;3.28;2.88;;;;;;;22.85;51.14;101550.69;4880394;29;20068;-82
2023/07/07 06:53:05;;;;;;;2.72;2.38;;;;;;;23.06;54.26;101547.72;4859606;29;20057;-81
2023/07/07 06:55:32;;;;;;;5.97;3.10;;;;;;;22.97;49.85;101551.84;4880137;29;20440;-81
2023/07/07 06:57:59;;;;;;;2.92;2.50;;;;;;;23.10;48.89;101549.28;4880269;29;20068;-85
2023/07/07 07:00:25;;;;;;;2.67;2.33;;;;;;;23.25;49.73;101548.38;4880081;29;20069;-83
2023/07/07 07:02:53;;;;;;;3.92;2.20;;;;;;;23.43;48.07;101551.78;4877878;29;20067;-81
2023/07/07 07:05:19;;;;;;;3.03;2.10;;;;;;;23.59;46.13;101547.22;4886843;29;20048;-84
2023/07/07 07:07:47;;;;;;;5.50;2.55;;;;;;;23.74;46.23;101551.72;4893350;29;20045;-81
2023/07/07 07:10:14;;;;;;;3.20;2.40;;;;;;;23.63;43.03;101556.91;4873223;29;20484;-82
2023/07/07 07:12:41;;;;;;;2.88;2.40;;;;;;;23.94;45.42;101560.38;4885505;29;20052;-85
2023/07/07 07:15:09;;;;;;;4.20;2.58;;;;;;;24.00;44.43;101560.88;4883959;29;20043;-82
2023/07/07 07:17:36;;;;;;;3.33;2.35;;;;;;;24.18;45.44;101553.47;4884519;29;20049;-85
2023/07/07 07:20:06;;;;;;;2.83;2.53;;;;;;;24.29;43.27;101555.47;4865093;29;20041;-87
2023/07/07 07:22:33;;;;;;;3.20;2.30;;;;;;;24.23;42.14;101556.75;4900522;29;20048;-81
2023/07/07 07:25:00;;;;;;;2.75;2.53;;;;;;;24.38;42.49;101558.50;4882592;29;20072;-87
2023/07/07 07:27:27;;;;;;;2.70;2.28;;;;;;;24.66;43.20;101557.59;4897343;29;20048;-82
2023/07/07 07:29:54;;;;;;;3.42;2.50;;;;;;;24.75;42.85;101552.53;4868633;29;20070;-86
2023/07/07 07:32:20;;;;;;;2.70;2.50;;;;;;;24.96;42.30;101545.69;4882562;29;20470;-83
2023/07/07 07:34:47;;;;;;;3.15;2.33;;;;;;;25.05;41.86;101549.66;4898285;29;20057;-86
2023/07/07 07:37:15;;;;;;;3.05;2.05;;;;;;;25.10;41.15;101553.78;4873447;29;20067;-85
2023/07/07 07:39:41;;;;;;;4.07;2.50;;;;;;;25.19;41.70;101549.59;4896475;29;20041;-85
2023/07/07 07:42:08;;;;;;;4.43;2.53;;;;;;;25.08;42.22;101553.03;4888391;29;20107;-87
2023/07/07 07:44:35;;;;;;;3.03;2.13;;;;;;;25.27;40.33;101558.94;4867018;29;20601;-81
2023/07/07 07:47:03;;;;;;;3.08;2.28;;;;;;;25.35;39.89;101554.84;4881533;29;20052;-87
2023/07/07 07:49:30;;;;;;;2.60;2.17;;;;;;;25.53;40.76;101553.56;4886604;29;20055;-84
2023/07/07 07:51:57;;;;;;;2.35;2.10;;;;;;;25.23;38.19;101557.41;4883871;29;20560;-82
2023/07/07 07:54:24;;;;;;;3.95;2.22;;;;;;;25.36;38.64;101551.16;4880726;29;20040;-84
2023/07/07 07:56:51;;;;;;;3.10;1.88;;;;;;;25.55;37.95;101544.34;4862453;29;20492;-81
2023/07/07 07:59:18;;;;;;;2.60;2.33;;;;;;;25.70;40.19;101547.84;4870636;29;20281;-82
2023/07/07 08:01:45;;;;;;;2.63;2.05;;;;;;;25.84;39.29;101546.06;4866509;29;20550;-82
2023/07/07 08:04:12;;;;;;;2.67;2.00;;;;;;;25.99;37.97;101547.69;4877802;29;20520;-83
2023/07/07 08:06:40;;;;;;;3.22;2.30;;;;;;;26.06;37.53;101547.16;4881553;29;20056;-83
2023/07/07 08:09:07;;;;;;;2.45;1.95;;;;;;;26.21;39.00;101555.13;4885188;29;20659;-84
2023/07/07 08:11:43;;;;;;;3.33;2.10;;;;;;;26.25;37.98;101548.53;4881050;29;20037;-83
2023/07/07 08:14:30;;;;;;;2.85;1.88;;;;;;;26.41;37.47;101560.00;4897640;29;20044;-81
2023/07/07 08:17:08;;;;;;;2.30;2.08;;;;;;;26.53;37.33;101552.81;4887982;29;20456;-84
2023/07/07 08:19:37;;;;;;;2.08;1.88;;;;;;;26.53;36.51;101556.41;4872736;29;20041;-82
2023/07/07 08:22:12;;;;;;;2.47;1.90;;;;;;;26.01;35.32;101553.84;4883020;29;20048;-81
2023/07/07 08:24:43;;;;;;;2.67;1.92;;;;;;;26.52;36.12;101560.09;4891277;29;20512;-85
2023/07/07 08:27:10;;;;;;;2.42;2.20;;;;;;;26.73;36.58;101563.03;4891209;29;20068;-86
2023/07/07 08:29:41;;;;;;;2.30;2.10;;;;;;;26.74;34.57;101562.09;4897741;29;20405;-83
2023/07/07 08:32:15;;;;;;;2.88;2.20;;;;;;;26.87;34.81;101562.03;4903996;23;20529;-83
2023/07/07 08:37:34;;;;;;;2.15;1.73;;;;;;;26.98;34.58;101558.50;4914503;23;20043;-83
2023/07/07 08:40:01;;;;;;;2.55;2.00;;;;;;;27.07;34.62;101563.25;4917649;23;20045;-82
2023/07/07 08:45:21;;;;;;;4.05;2.22;;;;;;;27.01;35.40;101561.00;4909558;29;20545;-83
2023/07/07 08:48:04;;;;;;;2.63;1.70;;;;;;;27.14;35.28;101556.41;4898958;29;20552;-83
2023/07/07 08:50:51;;;;;;;3.10;2.03;;;;;;;26.93;32.56;101565.16;4897640;29;20047;-84
2023/07/07 08:53:42;;;;;;;2.92;2.22;;;;;;;27.26;34.73;101554.63;4882111;29;20049;-81
2023/07/07 08:56:20;;;;;;;4.28;2.22;;;;;;;27.54;35.05;101550.63;4883335;29;20336;-84
2023/07/07 08:58:57;;;;;;;2.92;1.95;;;;;;;27.28;34.63;101550.78;4877496;29;20427;-82
2023/07/07 09:01:55;;;;;;;2.20;2.00;;;;;;;27.07;34.41;101538.84;4881057;29;20037;-83
2023/07/07 09:04:41;;;;;;;3.22;1.83;;;;;;;27.20;34.64;101550.50;4907861;29;20048;-81
2023/07/07 09:07:14;;;;;;;2.33;1.95;;;;;;;27.24;35.38;101548.41;4895455;29;20072;-80
2023/07/07 09:10:00;;;;;;;2.28;2.08;;;;;;;27.05;34.46;101560.69;4877187;29;20047;-82
2023/07/07 09:12:33;;;;;;;2.35;2.00;;;;;;;26.71;33.15;101556.88;4880521;29;20052;-81
2023/07/07 09:15:10;;;;;;;2.95;1.67;;;;;;;26.49;36.96;101562.16;4901012;29;20045;-83
2023/07/07 09:17:44;;;;;;;3.28;1.88;;;;;;;26.75;36.71;101568.38;4862887;29;20044;-82
2023/07/07 09:20:12;;;;;;;7.40;2.45;;;;;;;26.73;34.16;101567.59;4867443;29;20056;-85
2023/07/07 09:22:44;;;;;;;2.22;2.00;;;;;;;26.80;33.32;101556.19;4897468;29;20044;-85
2023/07/07 09:25:33;;;;;;;2.95;2.05;;;;;;;27.07;32.97;101558.72;4867501;29;20464;-84
2023/07/07 09:28:16;;;;;;;3.60;2.17;;;;;;;26.10;34.16;101554.06;4911041;29;20683;-83
2023/07/07 09:30:57;;;;;;;2.47;1.98;;;;;;;26.10;37.67;101555.91;4885263;29;20067;-83
2023/07/07 09:33:24;;;;;;;3.03;1.92;;;;;;;25.87;36.11;101553.94;4877624;29;20052;-82
2023/07/07 09:36:09;;;;;;;15.30;3.63;;;;;;;26.14;37.92;101543.84;4878760;29;20045;-83
2023/07/07 09:38:49;;;;;;;2.50;2.03;;;;;;;26.54;35.46;101544.56;4880352;29;20037;-83
2023/07/07 09:41:50;;;;;;;2.67;2.28;;;;;;;26.60;33.73;101537.84;4871845;29;20526;-82
2023/07/07 09:44:27;;;;;;;2.80;2.10;;;;;;;26.23;35.35;101537.78;4896606;29;20052;-82
2023/07/07 09:47:33;;;;;;;2.25;2.05;;;;;;;26.72;35.02;101539.63;4888995;29;20663;-82
2023/07/07 09:50:10;;;;;;;3.67;2.10;;;;;;;27.18;32.83;101542.50;4905439;29;20041;-83
2023/07/07 09:53:02;;;;;;;2.58;1.85;;;;;;;27.56;33.60;101543.22;4859596;29;20045;-83
2023/07/07 09:55:48;;;;;;;6.22;5.40;;;;;;;27.80;32.27;101544.06;4877138;29;20542;-85
2023/07/07 09:58:27;;;;;;;2.95;2.40;;;;;;;27.67;29.19;101544.16;4867977;29;20063;-84
2023/07/07 10:00:56;;;;;;;1.92;1.73;;;;;;;28.00;32.19;101548.78;4877650;29;20041;-83
2023/07/07 10:03:34;;;;;;;2.13;1.92;;;;;;;27.84;31.16;101544.69;4881901;29;20468;-84
2023/07/07 10:06:03;;;;;;;2.95;1.90;;;;;;;27.63;29.49;101545.34;4860781;29;20572;-82
2023/07/07 10:08:31;;;;;;;2.95;1.85;;;;;;;27.60;29.38;101534.72;4882833;29;20048;-83
2023/07/07 10:11:11;;;;;;;3.13;1.98;;;;;;;27.61;32.28;101535.59;4862876;29;20550;-83
2023/07/07 10:13:57;;;;;;;7.28;2.30;;;;;;;27.71;30.95;101544.78;4878388;29;20075;-83
2023/07/07 10:16:31;;;;;;;2.65;2.05;;;;;;;27.69;29.71;101527.75;4885107;29;20465;-83
2023/07/07 10:19:16;;;;;;;3.35;1.95;;;;;;;27.94;29.81;101530.25;4895390;29;20065;-83
2023/07/07 10:21:43;;;;;;;2.35;1.80;;;;;;;27.13;30.42;101517.56;4872676;29;20041;-84
2023/07/07 10:24:11;;;;;;;2.22;1.80;;;;;;;28.03;29.97;101523.22;4884216;29;20526;-82
2023/07/07 10:26:38;;;;;;;2.78;1.75;;;;;;;28.15;29.45;101521.34;4881480;29;20051;-81
2023/07/07 10:29:10;;;;;;;2.78;1.90;;;;;;;28.30;30.65;101512.84;4889425;29;20044;-84
2023/07/07 10:31:42;;;;;;;3.17;2.08;;;;;;;28.41;31.31;101516.53;4878843;29;20377;-84
2023/07/07 10:34:24;;;;;;;2.20;2.00;;;;;;;28.75;30.95;101509.16;4878720;29;20059;-83
2023/07/07 10:36:56;;;;;;;2.10;1.67;;;;;;;28.95;27.98;101516.56;4904587;29;20066;-83
2023/07/07 10:39:25;;;;;;;2.15;1.77;;;;;;;29.02;29.37;101519.63;4894609;29;20068;-82
2023/07/07 10:41:52;;;;;;;5.10;2.10;;;;;;;28.51;28.16;101515.69;4874713;29;20484;-82
2023/07/07 10:44:18;;;;;;;18.95;4.18;;;;;;;28.22;29.16;101507.13;4898817;29;20039;-84
2023/07/07 10:46:45;;;;;;;2.45;1.83;;;;;;;28.31;29.86;101500.97;4886395;29;20051;-84
2023/07/07 10:49:16;;;;;;;2.60;1.65;;;;;;;28.51;31.78;101507.53;4897505;29;20520;-83
2023/07/07 10:52:05;;;;;;;3.70;1.88;;;;;;;28.70;31.42;101504.13;4877859;29;20037;-84
2023/07/07 10:54:44;;;;;;;2.40;2.00;;;;;;;28.13;29.71;101510.59;4889835;29;20828;-81
2023/07/07 10:57:34;;;;;;;2.40;2.00;;;;;;;27.99;32.80;101502.69;4895317;29;20045;-82
2023/07/07 11:00:07;;;;;;;5.40;2.58;;;;;;;27.90;31.20;101503.44;4880145;29;20060;-84
2023/07/07 11:02:55;;;;;;;2.03;1.70;;;;;;;28.06;30.58;101495.78;4896932;29;20048;-82
2023/07/07 11:05:53;;;;;;;3.40;2.30;;;;;;;28.08;30.90;101496.53;4876499;29;20043;-81
2023/07/07 11:08:49;;;;;;;3.20;2.00;;;;;;;28.27;32.29;101504.94;4865557;29;20068;-83
2023/07/07 11:11:24;;;;;;;2.53;2.30;;;;;;;28.22;31.58;101506.28;4886068;29;20231;-83
2023/07/07 11:14:16;;;;;;;2.95;2.13;;;;;;;28.38;31.77;101501.34;4860906;29;20049;-83
2023/07/07 11:17:09;;;;;;;2.25;2.00;;;;;;;28.27;32.62;101509.50;4871248;29;20118;-80
2023/07/07 11:19:57;;;;;;;2.88;2.28;;;;;;;28.33;29.58;101503.56;4880248;29;20143;-82
2023/07/07 11:22:46;;;;;;;2.55;2.28;;;;;;;28.24;30.12;101496.13;4880485;29;20047;-83
2023/07/07 11:25:25;;;;;;;2.38;2.17;;;;;;;28.44;29.93;101500.84;4877982;29;20048;-81
2023/07/07 11:28:01;;;;;;;2.45;2.22;;;;;;;28.51;30.31;101496.66;4876989;29;20108;-81
2023/07/07 11:30:51;;;;;;;2.30;2.10;;;;;;;28.36;30.42;101492.47;4883009;29;20056;-82
2023/07/07 11:33:57;;;;;;;2.70;2.20;;;;;;;28.36;30.24;101487.03;4874976;29;20143;-84
2023/07/07 11:36:53;;;;;;;4.18;2.42;;;;;;;28.58;29.79;101491.53;4875329;29;20523;-83
2023/07/07 11:39:54;;;;;;;2.95;2.00;;;;;;;28.71;30.31;101491.38;4874403;29;20058;-84
2023/07/07 11:42:42;;;;;;;3.00;2.13;;;;;;;28.74;28.38;101499.28;4902822;29;20048;-83
2023/07/07 11:45:31;;;;;;;3.42;1.95;;;;;;;28.72;29.66;101498.56;4876551;29;20135;-83
2023/07/07 11:48:38;;;;;;;1.90;1.70;;;;;;;28.76;29.01;101490.03;4878726;29;20049;-84
2023/07/07 11:51:15;;;;;;;4.07;2.03;;;;;;;28.93;28.80;101479.59;4879218;29;20044;-83